sensor_id;sensor_type;location;lat;lon;timestamp;P1;durP1;ratioP1;P2;durP2;ratioP2
9888;SDS011;4983;42.112;24.738;2023-05-28T00:00:03;2.50;;;2.30;;
9888;SDS011;4983;42.112;24.738;2023-05-28T00:02:31;3.07;;;2.20;;
9888;SDS011;4983;42.112;24.738;2023-05-28T00:04:59;3.00;;;2.27;;
9888;SDS011;4983;42.112;24.738;2023-05-28T00:07:26;2.90;;;2.23;;
9888;SDS011;4983;42.112;24.738;2023-05-28T00:09:55;3.03;;;2.50;;
9888;SDS011;4983;42.112;24.738;2023-05-28T00:12:22;3.83;;;2.13;;
9888;SDS011;4983;42.112;24.738;2023-05-28T00:14:50;3.23;;;2.10;;
9888;SDS011;4983;42.112;24.738;2023-05-28T00:17:17;2.33;;;2.13;;
9888;SDS011;4983;42.112;24.738;2023-05-28T00:19:44;2.03;;;1.80;;
9888;SDS011;4983;42.112;24.738;2023-05-28T00:22:10;2.47;;;1.73;;
9888;SDS011;4983;42.112;24.738;2023-05-28T00:24:37;3.53;;;2.30;;
9888;SDS011;4983;42.112;24.738;2023-05-28T00:27:04;2.17;;;1.90;;
9888;SDS011;4983;42.112;24.738;2023-05-28T00:29:31;2.50;;;2.30;;
9888;SDS011;4983;42.112;24.738;2023-05-28T00:31:59;2.10;;;1.90;;
9888;SDS011;4983;42.112;24.738;2023-05-28T00:34:26;2.57;;;2.00;;
9888;SDS011;4983;42.112;24.738;2023-05-28T00:36:53;3.47;;;2.10;;
9888;SDS011;4983;42.112;24.738;2023-05-28T00:39:19;2.37;;;2.10;;
9888;SDS011;4983;42.112;24.738;2023-05-28T00:41:46;2.57;;;2.33;;
9888;SDS011;4983;42.112;24.738;2023-05-28T00:44:13;2.80;;;2.40;;
9888;SDS011;4983;42.112;24.738;2023-05-28T00:46:40;3.23;;;2.30;;
9888;SDS011;4983;42.112;24.738;2023-05-28T00:49:08;1.93;;;1.77;;
9888;SDS011;4983;42.112;24.738;2023-05-28T00:51:35;2.70;;;2.27;;
9888;SDS011;4983;42.112;24.738;2023-05-28T00:54:02;2.20;;;1.90;;
9888;SDS011;4983;42.112;24.738;2023-05-28T00:56:29;2.33;;;1.97;;
9888;SDS011;4983;42.112;24.738;2023-05-28T00:58:57;3.03;;;2.03;;
9888;SDS011;4983;42.112;24.738;2023-05-28T01:01:26;2.70;;;2.03;;
9888;SDS011;4983;42.112;24.738;2023-05-28T01:03:53;2.80;;;2.37;;
9888;SDS011;4983;42.112;24.738;2023-05-28T01:06:21;2.30;;;2.10;;
9888;SDS011;4983;42.112;24.738;2023-05-28T01:08:48;2.37;;;2.10;;
9888;SDS011;4983;42.112;24.738;2023-05-28T01:11:15;3.53;;;1.90;;
9888;SDS011;4983;42.112;24.738;2023-05-28T01:13:42;1.90;;;1.80;;
9888;SDS011;4983;42.112;24.738;2023-05-28T01:16:10;2.73;;;2.10;;
9888;SDS011;4983;42.112;24.738;2023-05-28T01:18:37;2.13;;;1.90;;
9888;SDS011;4983;42.112;24.738;2023-05-28T01:21:05;2.27;;;2.00;;
9888;SDS011;4983;42.112;24.738;2023-05-28T01:23:36;2.10;;;1.77;;
9888;SDS011;4983;42.112;24.738;2023-05-28T01:26:04;5.03;;;2.20;;
9888;SDS011;4983;42.112;24.738;2023-05-28T01:28:31;4.37;;;2.10;;
9888;SDS011;4983;42.112;24.738;2023-05-28T01:30:58;2.07;;;1.87;;
9888;SDS011;4983;42.112;24.738;2023-05-28T01:33:24;2.57;;;2.00;;
9888;SDS011;4983;42.112;24.738;2023-05-28T01:35:52;2.37;;;2.00;;
9888;SDS011;4983;42.112;24.738;2023-05-28T01:38:21;1.93;;;1.77;;
9888;SDS011;4983;42.112;24.738;2023-05-28T01:40:52;3.17;;;2.03;;
9888;SDS011;4983;42.112;24.738;2023-05-28T01:43:20;2.20;;;2.00;;
9888;SDS011;4983;42.112;24.738;2023-05-28T01:45:48;2.20;;;1.80;;
9888;SDS011;4983;42.112;24.738;2023-05-28T01:48:15;2.10;;;1.90;;
9888;SDS011;4983;42.112;24.738;2023-05-28T01:50:42;2.20;;;2.00;;
9888;SDS011;4983;42.112;24.738;2023-05-28T01:53:08;3.67;;;1.93;;
9888;SDS011;4983;42.112;24.738;2023-05-28T01:55:35;1.73;;;1.50;;
9888;SDS011;4983;42.112;24.738;2023-05-28T01:58:03;1.87;;;1.63;;
9888;SDS011;4983;42.112;24.738;2023-05-28T02:00:30;2.80;;;1.90;;
9888;SDS011;4983;42.112;24.738;2023-05-28T02:02:57;2.40;;;2.00;;
9888;SDS011;4983;42.112;24.738;2023-05-28T02:05:23;3.63;;;1.93;;
9888;SDS011;4983;42.112;24.738;2023-05-28T02:07:50;2.57;;;1.77;;
9888;SDS011;4983;42.112;24.738;2023-05-28T02:10:19;1.93;;;1.70;;
9888;SDS011;4983;42.112;24.738;2023-05-28T02:12:45;2.00;;;1.77;;
9888;SDS011;4983;42.112;24.738;2023-05-28T02:15:13;2.00;;;1.80;;
9888;SDS011;4983;42.112;24.738;2023-05-28T02:17:40;2.30;;;1.87;;
9888;SDS011;4983;42.112;24.738;2023-05-28T02:20:09;2.50;;;2.00;;
9888;SDS011;4983;42.112;24.738;2023-05-28T02:22:37;4.47;;;2.10;;
9888;SDS011;4983;42.112;24.738;2023-05-28T02:25:04;2.40;;;1.90;;
9888;SDS011;4983;42.112;24.738;2023-05-28T02:27:31;2.30;;;1.87;;
9888;SDS011;4983;42.112;24.738;2023-05-28T02:29:57;2.60;;;1.60;;
9888;SDS011;4983;42.112;24.738;2023-05-28T02:32:25;2.20;;;1.70;;
9888;SDS011;4983;42.112;24.738;2023-05-28T02:34:52;2.10;;;1.90;;
9888;SDS011;4983;42.112;24.738;2023-05-28T02:37:20;2.13;;;1.90;;
9888;SDS011;4983;42.112;24.738;2023-05-28T02:39:49;2.17;;;1.70;;
9888;SDS011;4983;42.112;24.738;2023-05-28T02:42:16;2.03;;;1.77;;
9888;SDS011;4983;42.112;24.738;2023-05-28T02:44:42;2.67;;;1.93;;
9888;SDS011;4983;42.112;24.738;2023-05-28T02:47:09;2.30;;;2.10;;
9888;SDS011;4983;42.112;24.738;2023-05-28T02:49:37;2.07;;;1.80;;
9888;SDS011;4983;42.112;24.738;2023-05-28T02:52:04;2.40;;;2.20;;
9888;SDS011;4983;42.112;24.738;2023-05-28T02:54:30;2.00;;;1.80;;
9888;SDS011;4983;42.112;24.738;2023-05-28T02:56:57;2.57;;;2.20;;
9888;SDS011;4983;42.112;24.738;2023-05-28T02:59:24;2.27;;;1.87;;
9888;SDS011;4983;42.112;24.738;2023-05-28T03:01:50;2.63;;;1.80;;
9888;SDS011;4983;42.112;24.738;2023-05-28T03:04:17;2.83;;;2.10;;
9888;SDS011;4983;42.112;24.738;2023-05-28T03:06:45;3.07;;;2.33;;
9888;SDS011;4983;42.112;24.738;2023-05-28T03:09:13;2.20;;;1.80;;
9888;SDS011;4983;42.112;24.738;2023-05-28T03:11:40;2.27;;;2.03;;
9888;SDS011;4983;42.112;24.738;2023-05-28T03:14:07;2.33;;;2.00;;
9888;SDS011;4983;42.112;24.738;2023-05-28T03:16:33;2.93;;;2.30;;
9888;SDS011;4983;42.112;24.738;2023-05-28T03:19:01;2.40;;;1.97;;
9888;SDS011;4983;42.112;24.738;2023-05-28T03:21:28;2.70;;;2.37;;
9888;SDS011;4983;42.112;24.738;2023-05-28T03:23:56;3.07;;;2.37;;
9888;SDS011;4983;42.112;24.738;2023-05-28T03:26:24;2.57;;;2.10;;
9888;SDS011;4983;42.112;24.738;2023-05-28T03:28:52;3.80;;;2.10;;
9888;SDS011;4983;42.112;24.738;2023-05-28T03:31:18;2.47;;;1.97;;
9888;SDS011;4983;42.112;24.738;2023-05-28T03:33:45;2.43;;;2.20;;
9888;SDS011;4983;42.112;24.738;2023-05-28T03:36:12;2.87;;;2.10;;
9888;SDS011;4983;42.112;24.738;2023-05-28T03:38:39;3.50;;;2.10;;
9888;SDS011;4983;42.112;24.738;2023-05-28T03:41:07;2.53;;;2.00;;
9888;SDS011;4983;42.112;24.738;2023-05-28T03:43:33;2.40;;;2.20;;
9888;SDS011;4983;42.112;24.738;2023-05-28T03:46:00;2.87;;;2.40;;
9888;SDS011;4983;42.112;24.738;2023-05-28T03:48:27;3.00;;;2.20;;
9888;SDS011;4983;42.112;24.738;2023-05-28T03:50:54;2.57;;;1.93;;
9888;SDS011;4983;42.112;24.738;2023-05-28T03:53:21;3.13;;;2.70;;
9888;SDS011;4983;42.112;24.738;2023-05-28T03:55:47;2.23;;;2.03;;
9888;SDS011;4983;42.112;24.738;2023-05-28T04:00:45;3.20;;;2.57;;
9888;SDS011;4983;42.112;24.738;2023-05-28T04:03:12;2.73;;;2.47;;
9888;SDS011;4983;42.112;24.738;2023-05-28T04:05:38;2.70;;;2.50;;
9888;SDS011;4983;42.112;24.738;2023-05-28T04:08:05;2.37;;;2.17;;
9888;SDS011;4983;42.112;24.738;2023-05-28T04:10:32;2.50;;;2.00;;
9888;SDS011;4983;42.112;24.738;2023-05-28T04:13:00;4.10;;;2.93;;
9888;SDS011;4983;42.112;24.738;2023-05-28T04:15:27;3.80;;;3.20;;
9888;SDS011;4983;42.112;24.738;2023-05-28T04:17:55;3.00;;;2.40;;
9888;SDS011;4983;42.112;24.738;2023-05-28T04:20:21;4.13;;;2.50;;
9888;SDS011;4983;42.112;24.738;2023-05-28T04:22:48;2.57;;;2.37;;
9888;SDS011;4983;42.112;24.738;2023-05-28T04:25:16;5.27;;;2.30;;
9888;SDS011;4983;42.112;24.738;2023-05-28T04:27:44;5.80;;;2.40;;
9888;SDS011;4983;42.112;24.738;2023-05-28T04:30:11;3.00;;;2.50;;
9888;SDS011;4983;42.112;24.738;2023-05-28T04:32:38;2.90;;;2.47;;
9888;SDS011;4983;42.112;24.738;2023-05-28T04:35:06;2.80;;;2.50;;
9888;SDS011;4983;42.112;24.738;2023-05-28T04:37:34;2.63;;;2.37;;
9888;SDS011;4983;42.112;24.738;2023-05-28T04:40:02;3.77;;;3.07;;
9888;SDS011;4983;42.112;24.738;2023-05-28T04:42:29;4.07;;;2.60;;
9888;SDS011;4983;42.112;24.738;2023-05-28T04:44:57;3.40;;;2.70;;
9888;SDS011;4983;42.112;24.738;2023-05-28T04:47:25;3.70;;;2.53;;
9888;SDS011;4983;42.112;24.738;2023-05-28T04:49:52;3.43;;;2.70;;
9888;SDS011;4983;42.112;24.738;2023-05-28T04:52:20;3.47;;;2.67;;
9888;SDS011;4983;42.112;24.738;2023-05-28T04:54:47;3.90;;;3.17;;
9888;SDS011;4983;42.112;24.738;2023-05-28T04:57:16;3.30;;;2.40;;
9888;SDS011;4983;42.112;24.738;2023-05-28T04:59:45;3.97;;;2.70;;
9888;SDS011;4983;42.112;24.738;2023-05-28T05:02:25;3.43;;;2.67;;
9888;SDS011;4983;42.112;24.738;2023-05-28T05:04:51;3.57;;;2.67;;
9888;SDS011;4983;42.112;24.738;2023-05-28T05:07:18;3.00;;;2.60;;
9888;SDS011;4983;42.112;24.738;2023-05-28T05:09:47;4.03;;;2.70;;
9888;SDS011;4983;42.112;24.738;2023-05-28T05:12:14;3.63;;;2.60;;
9888;SDS011;4983;42.112;24.738;2023-05-28T05:14:40;3.00;;;2.33;;
9888;SDS011;4983;42.112;24.738;2023-05-28T05:17:07;3.13;;;2.70;;
9888;SDS011;4983;42.112;24.738;2023-05-28T05:19:34;3.00;;;2.70;;
9888;SDS011;4983;42.112;24.738;2023-05-28T05:22:00;3.40;;;2.90;;
9888;SDS011;4983;42.112;24.738;2023-05-28T05:24:28;3.60;;;2.60;;
9888;SDS011;4983;42.112;24.738;2023-05-28T05:26:57;3.10;;;2.27;;
9888;SDS011;4983;42.112;24.738;2023-05-28T05:29:23;4.60;;;2.60;;
9888;SDS011;4983;42.112;24.738;2023-05-28T05:31:50;4.63;;;2.70;;
9888;SDS011;4983;42.112;24.738;2023-05-28T05:34:17;4.20;;;2.50;;
9888;SDS011;4983;42.112;24.738;2023-05-28T05:36:43;3.10;;;2.50;;
9888;SDS011;4983;42.112;24.738;2023-05-28T05:39:11;3.23;;;2.80;;
9888;SDS011;4983;42.112;24.738;2023-05-28T05:41:40;3.20;;;2.47;;
9888;SDS011;4983;42.112;24.738;2023-05-28T05:44:09;3.50;;;2.70;;
9888;SDS011;4983;42.112;24.738;2023-05-28T05:46:37;3.63;;;2.90;;
9888;SDS011;4983;42.112;24.738;2023-05-28T05:49:04;3.90;;;2.50;;
9888;SDS011;4983;42.112;24.738;2023-05-28T05:51:30;3.80;;;3.00;;
9888;SDS011;4983;42.112;24.738;2023-05-28T05:53:58;3.30;;;2.50;;
9888;SDS011;4983;42.112;24.738;2023-05-28T05:56:24;4.13;;;3.07;;
9888;SDS011;4983;42.112;24.738;2023-05-28T05:58:52;3.53;;;2.63;;
9888;SDS011;4983;42.112;24.738;2023-05-28T06:01:20;3.50;;;2.87;;
9888;SDS011;4983;42.112;24.738;2023-05-28T06:03:47;3.60;;;2.97;;
9888;SDS011;4983;42.112;24.738;2023-05-28T06:06:14;3.43;;;2.90;;
9888;SDS011;4983;42.112;24.738;2023-05-28T06:08:41;4.47;;;2.70;;
9888;SDS011;4983;42.112;24.738;2023-05-28T06:11:08;3.30;;;2.77;;
9888;SDS011;4983;42.112;24.738;2023-05-28T06:13:35;4.60;;;2.80;;
9888;SDS011;4983;42.112;24.738;2023-05-28T06:16:03;3.13;;;2.43;;
9888;SDS011;4983;42.112;24.738;2023-05-28T06:18:31;3.47;;;2.83;;
9888;SDS011;4983;42.112;24.738;2023-05-28T06:20:58;3.93;;;2.90;;
9888;SDS011;4983;42.112;24.738;2023-05-28T06:23:24;3.60;;;2.57;;
9888;SDS011;4983;42.112;24.738;2023-05-28T06:25:51;2.60;;;2.40;;
9888;SDS011;4983;42.112;24.738;2023-05-28T06:28:18;2.97;;;2.67;;
9888;SDS011;4983;42.112;24.738;2023-05-28T06:30:44;3.27;;;2.60;;
9888;SDS011;4983;42.112;24.738;2023-05-28T06:33:11;3.87;;;2.43;;
9888;SDS011;4983;42.112;24.738;2023-05-28T06:35:39;2.87;;;2.33;;
9888;SDS011;4983;42.112;24.738;2023-05-28T06:38:07;2.70;;;2.30;;
9888;SDS011;4983;42.112;24.738;2023-05-28T06:40:33;2.57;;;1.97;;
9888;SDS011;4983;42.112;24.738;2023-05-28T06:43:00;3.30;;;2.20;;
9888;SDS011;4983;42.112;24.738;2023-05-28T06:45:28;2.33;;;1.93;;
9888;SDS011;4983;42.112;24.738;2023-05-28T06:47:58;2.73;;;2.00;;
9888;SDS011;4983;42.112;24.738;2023-05-28T06:50:25;3.13;;;2.13;;
9888;SDS011;4983;42.112;24.738;2023-05-28T06:52:53;4.87;;;2.40;;
9888;SDS011;4983;42.112;24.738;2023-05-28T06:55:21;2.80;;;2.10;;
9888;SDS011;4983;42.112;24.738;2023-05-28T06:57:47;3.10;;;2.03;;
9888;SDS011;4983;42.112;24.738;2023-05-28T07:00:14;3.63;;;2.17;;
9888;SDS011;4983;42.112;24.738;2023-05-28T07:02:43;2.67;;;1.90;;
9888;SDS011;4983;42.112;24.738;2023-05-28T07:05:10;2.40;;;1.90;;
9888;SDS011;4983;42.112;24.738;2023-05-28T07:07:37;3.57;;;2.00;;
9888;SDS011;4983;42.112;24.738;2023-05-28T07:10:06;2.37;;;1.87;;
9888;SDS011;4983;42.112;24.738;2023-05-28T07:12:34;2.67;;;1.93;;
9888;SDS011;4983;42.112;24.738;2023-05-28T07:15:01;2.90;;;2.17;;
9888;SDS011;4983;42.112;24.738;2023-05-28T07:17:27;2.07;;;1.80;;
9888;SDS011;4983;42.112;24.738;2023-05-28T07:19:54;2.03;;;1.83;;
9888;SDS011;4983;42.112;24.738;2023-05-28T07:22:21;2.27;;;1.70;;
9888;SDS011;4983;42.112;24.738;2023-05-28T07:24:50;2.50;;;1.90;;
9888;SDS011;4983;42.112;24.738;2023-05-28T07:27:18;2.17;;;1.70;;
9888;SDS011;4983;42.112;24.738;2023-05-28T07:29:44;2.33;;;1.70;;
9888;SDS011;4983;42.112;24.738;2023-05-28T07:32:11;2.70;;;1.47;;
9888;SDS011;4983;42.112;24.738;2023-05-28T07:34:38;1.77;;;1.60;;
9888;SDS011;4983;42.112;24.738;2023-05-28T07:37:06;2.57;;;1.87;;
9888;SDS011;4983;42.112;24.738;2023-05-28T07:39:32;2.50;;;1.80;;
9888;SDS011;4983;42.112;24.738;2023-05-28T07:41:59;2.43;;;1.60;;
9888;SDS011;4983;42.112;24.738;2023-05-28T07:44:27;3.83;;;1.90;;
9888;SDS011;4983;42.112;24.738;2023-05-28T07:46:54;3.50;;;2.10;;
9888;SDS011;4983;42.112;24.738;2023-05-28T07:49:21;2.37;;;1.80;;
9888;SDS011;4983;42.112;24.738;2023-05-28T07:51:48;2.10;;;1.80;;
9888;SDS011;4983;42.112;24.738;2023-05-28T07:54:15;3.77;;;1.80;;
9888;SDS011;4983;42.112;24.738;2023-05-28T07:56:41;2.63;;;2.20;;
9888;SDS011;4983;42.112;24.738;2023-05-28T07:59:08;2.13;;;1.90;;
9888;SDS011;4983;42.112;24.738;2023-05-28T08:01:37;2.00;;;1.80;;
9888;SDS011;4983;42.112;24.738;2023-05-28T08:04:05;2.77;;;2.10;;
9888;SDS011;4983;42.112;24.738;2023-05-28T08:06:31;2.60;;;1.53;;
9888;SDS011;4983;42.112;24.738;2023-05-28T08:08:58;3.10;;;1.57;;
9888;SDS011;4983;42.112;24.738;2023-05-28T08:11:25;2.47;;;2.00;;
9888;SDS011;4983;42.112;24.738;2023-05-28T08:13:53;2.37;;;1.77;;
9888;SDS011;4983;42.112;24.738;2023-05-28T08:16:19;1.73;;;1.60;;
9888;SDS011;4983;42.112;24.738;2023-05-28T08:18:48;2.50;;;1.90;;
9888;SDS011;4983;42.112;24.738;2023-05-28T08:21:14;2.33;;;1.70;;
9888;SDS011;4983;42.112;24.738;2023-05-28T08:23:41;2.10;;;1.90;;
9888;SDS011;4983;42.112;24.738;2023-05-28T08:26:08;2.03;;;1.73;;
9888;SDS011;4983;42.112;24.738;2023-05-28T08:28:35;2.10;;;1.70;;
9888;SDS011;4983;42.112;24.738;2023-05-28T08:31:01;2.73;;;1.63;;
9888;SDS011;4983;42.112;24.738;2023-05-28T08:33:28;2.30;;;2.10;;
9888;SDS011;4983;42.112;24.738;2023-05-28T08:35:59;2.37;;;1.80;;
9888;SDS011;4983;42.112;24.738;2023-05-28T08:38:27;2.23;;;1.80;;
9888;SDS011;4983;42.112;24.738;2023-05-28T08:40:54;2.87;;;2.00;;
9888;SDS011;4983;42.112;24.738;2023-05-28T08:43:21;2.30;;;1.90;;
9888;SDS011;4983;42.112;24.738;2023-05-28T08:45:49;2.37;;;1.40;;
9888;SDS011;4983;42.112;24.738;2023-05-28T08:48:17;1.37;;;1.27;;
9888;SDS011;4983;42.112;24.738;2023-05-28T08:50:46;1.30;;;1.20;;
9888;SDS011;4983;42.112;24.738;2023-05-28T08:53:16;3.17;;;1.50;;
9888;SDS011;4983;42.112;24.738;2023-05-28T08:55:43;1.67;;;1.30;;
9888;SDS011;4983;42.112;24.738;2023-05-28T08:58:10;1.47;;;1.37;;
9888;SDS011;4983;42.112;24.738;2023-05-28T09:00:37;2.00;;;1.50;;
9888;SDS011;4983;42.112;24.738;2023-05-28T09:03:04;1.43;;;1.10;;
9888;SDS011;4983;42.112;24.738;2023-05-28T09:05:33;1.57;;;1.30;;
9888;SDS011;4983;42.112;24.738;2023-05-28T09:08:02;1.80;;;1.27;;
9888;SDS011;4983;42.112;24.738;2023-05-28T09:10:30;1.83;;;1.50;;
9888;SDS011;4983;42.112;24.738;2023-05-28T09:12:58;1.50;;;1.40;;
9888;SDS011;4983;42.112;24.738;2023-05-28T09:15:25;1.57;;;1.27;;
9888;SDS011;4983;42.112;24.738;2023-05-28T09:17:53;1.30;;;1.20;;
9888;SDS011;4983;42.112;24.738;2023-05-28T09:20:19;1.10;;;1.00;;
9888;SDS011;4983;42.112;24.738;2023-05-28T09:22:52;2.37;;;1.20;;
9888;SDS011;4983;42.112;24.738;2023-05-28T09:25:23;1.63;;;1.33;;
9888;SDS011;4983;42.112;24.738;2023-05-28T09:27:51;2.77;;;1.43;;
9888;SDS011;4983;42.112;24.738;2023-05-28T09:30:18;2.10;;;1.20;;
9888;SDS011;4983;42.112;24.738;2023-05-28T09:32:46;1.40;;;1.30;;
9888;SDS011;4983;42.112;24.738;2023-05-28T09:35:21;1.83;;;1.40;;
9888;SDS011;4983;42.112;24.738;2023-05-28T09:37:58;1.70;;;1.10;;
9888;SDS011;4983;42.112;24.738;2023-05-28T09:40:25;1.47;;;1.27;;
9888;SDS011;4983;42.112;24.738;2023-05-28T09:42:53;2.27;;;1.23;;
9888;SDS011;4983;42.112;24.738;2023-05-28T09:45:22;1.40;;;1.30;;
9888;SDS011;4983;42.112;24.738;2023-05-28T09:47:49;2.03;;;1.37;;
9888;SDS011;4983;42.112;24.738;2023-05-28T09:50:16;1.30;;;1.20;;
9888;SDS011;4983;42.112;24.738;2023-05-28T09:52:43;2.90;;;1.37;;
9888;SDS011;4983;42.112;24.738;2023-05-28T09:55:10;1.63;;;1.30;;
9888;SDS011;4983;42.112;24.738;2023-05-28T09:57:40;1.43;;;1.10;;
9888;SDS011;4983;42.112;24.738;2023-05-28T10:00:11;1.90;;;1.17;;
9888;SDS011;4983;42.112;24.738;2023-05-28T10:02:46;2.43;;;1.30;;
9888;SDS011;4983;42.112;24.738;2023-05-28T10:05:16;1.97;;;1.30;;
9888;SDS011;4983;42.112;24.738;2023-05-28T10:07:47;1.60;;;1.50;;
9888;SDS011;4983;42.112;24.738;2023-05-28T10:10:15;1.40;;;1.30;;
9888;SDS011;4983;42.112;24.738;2023-05-28T10:12:43;1.30;;;1.20;;
9888;SDS011;4983;42.112;24.738;2023-05-28T10:15:13;1.10;;;0.90;;
9888;SDS011;4983;42.112;24.738;2023-05-28T10:17:40;1.73;;;1.23;;
9888;SDS011;4983;42.112;24.738;2023-05-28T10:20:08;1.43;;;1.33;;
9888;SDS011;4983;42.112;24.738;2023-05-28T10:22:37;2.03;;;1.30;;
9888;SDS011;4983;42.112;24.738;2023-05-28T10:25:05;1.30;;;1.20;;
9888;SDS011;4983;42.112;24.738;2023-05-28T10:27:33;1.30;;;1.20;;
9888;SDS011;4983;42.112;24.738;2023-05-28T10:30:02;1.50;;;1.33;;
9888;SDS011;4983;42.112;24.738;2023-05-28T10:32:30;1.57;;;1.20;;
9888;SDS011;4983;42.112;24.738;2023-05-28T10:35:05;1.37;;;1.20;;
9888;SDS011;4983;42.112;24.738;2023-05-28T10:37:32;1.10;;;1.00;;
9888;SDS011;4983;42.112;24.738;2023-05-28T10:40:01;6.30;;;1.43;;
9888;SDS011;4983;42.112;24.738;2023-05-28T10:42:29;2.67;;;1.30;;
9888;SDS011;4983;42.112;24.738;2023-05-28T10:45:06;1.87;;;1.20;;
9888;SDS011;4983;42.112;24.738;2023-05-28T10:47:36;1.67;;;1.20;;
9888;SDS011;4983;42.112;24.738;2023-05-28T10:50:12;1.27;;;1.07;;
9888;SDS011;4983;42.112;24.738;2023-05-28T10:52:39;1.30;;;1.20;;
9888;SDS011;4983;42.112;24.738;2023-05-28T10:55:06;1.40;;;1.30;;
9888;SDS011;4983;42.112;24.738;2023-05-28T10:57:43;1.87;;;1.30;;
9888;SDS011;4983;42.112;24.738;2023-05-28T11:00:11;1.47;;;1.30;;
9888;SDS011;4983;42.112;24.738;2023-05-28T11:02:43;1.90;;;1.50;;
9888;SDS011;4983;42.112;24.738;2023-05-28T11:05:11;1.40;;;1.30;;
9888;SDS011;4983;42.112;24.738;2023-05-28T11:07:39;1.40;;;1.30;;
9888;SDS011;4983;42.112;24.738;2023-05-28T11:10:08;2.33;;;1.50;;
9888;SDS011;4983;42.112;24.738;2023-05-28T11:12:35;1.40;;;1.30;;
9888;SDS011;4983;42.112;24.738;2023-05-28T11:15:03;2.33;;;1.43;;
9888;SDS011;4983;42.112;24.738;2023-05-28T11:17:35;2.07;;;1.37;;
9888;SDS011;4983;42.112;24.738;2023-05-28T11:20:03;2.10;;;1.50;;
9888;SDS011;4983;42.112;24.738;2023-05-28T11:22:32;1.87;;;1.57;;
9888;SDS011;4983;42.112;24.738;2023-05-28T11:25:03;3.00;;;1.70;;
9888;SDS011;4983;42.112;24.738;2023-05-28T11:27:32;2.87;;;1.97;;
9888;SDS011;4983;42.112;24.738;2023-05-28T11:30:00;3.27;;;1.73;;
9888;SDS011;4983;42.112;24.738;2023-05-28T11:32:28;4.37;;;1.60;;
9888;SDS011;4983;42.112;24.738;2023-05-28T11:34:58;2.60;;;1.63;;
9888;SDS011;4983;42.112;24.738;2023-05-28T11:37:27;2.63;;;1.93;;
9888;SDS011;4983;42.112;24.738;2023-05-28T11:39:54;2.00;;;1.53;;
9888;SDS011;4983;42.112;24.738;2023-05-28T11:42:21;3.43;;;2.20;;
9888;SDS011;4983;42.112;24.738;2023-05-28T11:44:49;2.50;;;1.90;;
9888;SDS011;4983;42.112;24.738;2023-05-28T11:47:16;1.70;;;1.47;;
9888;SDS011;4983;42.112;24.738;2023-05-28T11:49:43;2.00;;;1.80;;
9888;SDS011;4983;42.112;24.738;2023-05-28T11:52:10;2.00;;;1.73;;
9888;SDS011;4983;42.112;24.738;2023-05-28T11:54:39;2.30;;;1.80;;
9888;SDS011;4983;42.112;24.738;2023-05-28T11:57:07;1.70;;;1.60;;
9888;SDS011;4983;42.112;24.738;2023-05-28T11:59:34;2.93;;;1.87;;
9888;SDS011;4983;42.112;24.738;2023-05-28T12:02:08;3.10;;;1.87;;
9888;SDS011;4983;42.112;24.738;2023-05-28T12:04:35;2.70;;;1.90;;
9888;SDS011;4983;42.112;24.738;2023-05-28T12:07:02;4.00;;;2.00;;
9888;SDS011;4983;42.112;24.738;2023-05-28T12:09:29;2.53;;;2.10;;
9888;SDS011;4983;42.112;24.738;2023-05-28T12:12:04;2.20;;;1.87;;
9888;SDS011;4983;42.112;24.738;2023-05-28T12:14:30;2.00;;;1.80;;
9888;SDS011;4983;42.112;24.738;2023-05-28T12:17:03;2.63;;;1.90;;
9888;SDS011;4983;42.112;24.738;2023-05-28T12:19:31;2.00;;;1.80;;
9888;SDS011;4983;42.112;24.738;2023-05-28T12:21:58;2.80;;;1.87;;
9888;SDS011;4983;42.112;24.738;2023-05-28T12:24:25;1.87;;;1.60;;
9888;SDS011;4983;42.112;24.738;2023-05-28T12:26:53;2.60;;;1.90;;
9888;SDS011;4983;42.112;24.738;2023-05-28T12:29:21;1.83;;;1.63;;
9888;SDS011;4983;42.112;24.738;2023-05-28T12:31:56;2.83;;;1.60;;
9888;SDS011;4983;42.112;24.738;2023-05-28T12:34:22;2.53;;;1.70;;
9888;SDS011;4983;42.112;24.738;2023-05-28T12:36:49;3.67;;;2.00;;
9888;SDS011;4983;42.112;24.738;2023-05-28T12:39:16;3.20;;;1.50;;
9888;SDS011;4983;42.112;24.738;2023-05-28T12:41:42;2.30;;;1.80;;
9888;SDS011;4983;42.112;24.738;2023-05-28T12:44:09;2.13;;;1.80;;
9888;SDS011;4983;42.112;24.738;2023-05-28T12:46:37;2.53;;;1.80;;
9888;SDS011;4983;42.112;24.738;2023-05-28T12:49:04;2.00;;;1.70;;
9888;SDS011;4983;42.112;24.738;2023-05-28T12:51:31;2.00;;;1.70;;
9888;SDS011;4983;42.112;24.738;2023-05-28T12:53:58;1.40;;;1.30;;
9888;SDS011;4983;42.112;24.738;2023-05-28T12:56:26;2.57;;;1.57;;
9888;SDS011;4983;42.112;24.738;2023-05-28T12:58:53;1.90;;;1.63;;
9888;SDS011;4983;42.112;24.738;2023-05-28T13:01:20;2.47;;;1.90;;
9888;SDS011;4983;42.112;24.738;2023-05-28T13:03:49;1.97;;;1.60;;
9888;SDS011;4983;42.112;24.738;2023-05-28T13:06:16;3.20;;;1.93;;
9888;SDS011;4983;42.112;24.738;2023-05-28T13:08:43;1.90;;;1.80;;
9888;SDS011;4983;42.112;24.738;2023-05-28T13:11:10;3.00;;;1.60;;
9888;SDS011;4983;42.112;24.738;2023-05-28T13:13:36;2.57;;;2.10;;
9888;SDS011;4983;42.112;24.738;2023-05-28T13:16:03;2.10;;;1.70;;
9888;SDS011;4983;42.112;24.738;2023-05-28T13:18:30;2.27;;;2.00;;
9888;SDS011;4983;42.112;24.738;2023-05-28T13:20:58;1.80;;;1.63;;
9888;SDS011;4983;42.112;24.738;2023-05-28T13:23:25;3.33;;;1.87;;
9888;SDS011;4983;42.112;24.738;2023-05-28T13:25:53;5.00;;;1.93;;
9888;SDS011;4983;42.112;24.738;2023-05-28T13:28:22;2.23;;;1.70;;
9888;SDS011;4983;42.112;24.738;2023-05-28T13:30:49;2.80;;;2.00;;
9888;SDS011;4983;42.112;24.738;2023-05-28T13:33:16;1.97;;;1.60;;
9888;SDS011;4983;42.112;24.738;2023-05-28T13:35:43;4.83;;;2.00;;
9888;SDS011;4983;42.112;24.738;2023-05-28T13:38:11;2.10;;;1.90;;
9888;SDS011;4983;42.112;24.738;2023-05-28T13:40:38;2.67;;;1.87;;
9888;SDS011;4983;42.112;24.738;2023-05-28T13:43:05;2.53;;;2.03;;
9888;SDS011;4983;42.112;24.738;2023-05-28T13:45:32;1.73;;;1.63;;
9888;SDS011;4983;42.112;24.738;2023-05-28T13:47:59;2.30;;;1.93;;
9888;SDS011;4983;42.112;24.738;2023-05-28T13:50:27;3.80;;;2.30;;
9888;SDS011;4983;42.112;24.738;2023-05-28T13:52:54;3.40;;;2.17;;
9888;SDS011;4983;42.112;24.738;2023-05-28T13:55:22;2.60;;;2.00;;
9888;SDS011;4983;42.112;24.738;2023-05-28T13:57:50;3.20;;;2.50;;
9888;SDS011;4983;42.112;24.738;2023-05-28T14:00:17;2.50;;;2.17;;
9888;SDS011;4983;42.112;24.738;2023-05-28T14:02:46;4.87;;;2.40;;
9888;SDS011;4983;42.112;24.738;2023-05-28T14:05:15;2.43;;;2.03;;
9888;SDS011;4983;42.112;24.738;2023-05-28T14:07:42;2.70;;;2.13;;
9888;SDS011;4983;42.112;24.738;2023-05-28T14:10:09;4.57;;;2.17;;
9888;SDS011;4983;42.112;24.738;2023-05-28T14:12:38;2.30;;;1.80;;
9888;SDS011;4983;42.112;24.738;2023-05-28T14:15:05;3.00;;;2.13;;
9888;SDS011;4983;42.112;24.738;2023-05-28T14:17:33;2.43;;;2.10;;
9888;SDS011;4983;42.112;24.738;2023-05-28T14:20:00;2.80;;;2.40;;
9888;SDS011;4983;42.112;24.738;2023-05-28T14:22:29;2.80;;;2.50;;
9888;SDS011;4983;42.112;24.738;2023-05-28T14:24:57;2.30;;;2.10;;
9888;SDS011;4983;42.112;24.738;2023-05-28T14:27:23;2.37;;;2.17;;
9888;SDS011;4983;42.112;24.738;2023-05-28T14:29:52;1.90;;;1.70;;
9888;SDS011;4983;42.112;24.738;2023-05-28T14:32:19;2.37;;;1.93;;
9888;SDS011;4983;42.112;24.738;2023-05-28T14:34:46;2.13;;;1.80;;
9888;SDS011;4983;42.112;24.738;2023-05-28T14:37:13;2.57;;;1.80;;
9888;SDS011;4983;42.112;24.738;2023-05-28T14:39:40;3.20;;;2.10;;
9888;SDS011;4983;42.112;24.738;2023-05-28T14:42:10;2.30;;;1.73;;
9888;SDS011;4983;42.112;24.738;2023-05-28T14:44:38;1.80;;;1.50;;
9888;SDS011;4983;42.112;24.738;2023-05-28T14:47:07;2.80;;;1.60;;
9888;SDS011;4983;42.112;24.738;2023-05-28T14:49:33;3.37;;;1.77;;
9888;SDS011;4983;42.112;24.738;2023-05-28T14:52:19;3.00;;;1.70;;
9888;SDS011;4983;42.112;24.738;2023-05-28T14:54:46;1.40;;;1.30;;
9888;SDS011;4983;42.112;24.738;2023-05-28T14:57:13;1.60;;;1.33;;
9888;SDS011;4983;42.112;24.738;2023-05-28T14:59:40;1.90;;;1.70;;
9888;SDS011;4983;42.112;24.738;2023-05-28T15:02:09;2.53;;;1.50;;
9888;SDS011;4983;42.112;24.738;2023-05-28T15:04:36;1.60;;;1.50;;